首页
METAR-TAF:

METAR-TAF

机场 :

尼斯蓝色海岸机场

尼斯, 法国

纬度: 43-39N, 经度: 007-12E, 海拔: 4米

当前天气观测

该预报发布于57分钟前的06:30 UTC
风速8节,风向北转西北
温度 8°C
湿度 61%
气压 1000 hPa
能见度10公里或以上
1500米以下无云,无积雨云

METAR: LFMN 170630Z 34008KT CAVOK 08/01 Q1000 NOSIG

时间: 08:27 (07:27 UTC)

预报

该预报发布于5小时和27分钟前的02:00 UTC
预报有效从17日的 03点(UTC)到 18日的 09点(UTC)
风速10节,风向北转西北
能见度10公里或以上
1500米以下无云,无积雨云
成为
从 17日的 10点(UTC)到 17日的 12点(UTC)
风速10节,风向西转西南
成为
从 17日的 19点(UTC)到 17日的 21点(UTC)
风速10节,风向北转西北

TAF: LFMN 170200Z 1703/1809 34010KT CAVOK BECMG 1710/1712 24010KT BECMG 1719/1721 34010KT

超过4000个机场的气象观测和天气预报(METAR&TAF报告)。

可查询的气象台以黄色和红色小点在地图上表示。

将鼠标移到小点上方,可查看气象台名称。

然后点击查看天气观测和预报。

如需切换地图:点击带黑十字的绿色按钮放大地图;点击带横线的绿色按钮缩小地图;或者点击绿色箭头查看邻近地区的地图。


METAR-TAF: